Latest Coastal Weather Observations for Browse Island

IDD60701

Issued at 12:41 pm CST Tuesday 30 August 2016 (issued every 10 minutes, with the page automatically refreshed every 10 minutes)

About coastal observations | Map of coastal stations | Coastal observations for NT | Marine services | Other Formats
Station Details ID: 200784 Name: BROWSE ISLAND Lat: -14.11 Lon: 123.55 Height: 3.7 m
Data from the previous 72 hours. | See also: Recent months at Browse Island
Date/Time
CST
Temp
°C
Wind Pressure Rain since
9am
mm
Weather Cloud Vis
km
Sea
Height
m
Swell
Dir  Spd
kts
Gust
kts
hPa Trend Height
m
Period
s
Dir
30/12:30pm 28.8 N 11 13 1014.3 - - - - - - - - -
30/12:00pm 28.5 N 10 13 1014.6 - - - - - - - - -
30/11:30am 28.5 N 9 11 1015.0 - - - - - - - - -
30/11:00am 28.3 N 10 13 1015.1 - - - - - - - - -
30/10:30am 27.9 N 9 13 1015.0 - - - - - - - - -
30/10:00am 28.4 N 9 12 1014.8 - - - - - - - - -
30/09:30am 27.6 N 11 13 1014.6 - - - - - - - - -
30/09:00am 27.3 N 11 13 1014.3 - - - - - - - - -
30/08:30am 27.3 N 12 14 1014.2 - - - - - - - - -
30/08:00am 27.2 N 13 15 1013.8 - - - - - - - - -
30/07:30am 27.2 N 13 14 1013.4 - - - - - - - - -
30/07:00am 27.0 N 12 15 1013.1 - - - - - - - - -
30/06:30am 27.2 N 12 14 1012.6 - - - - - - - - -
30/06:00am 27.3 N 13 15 1012.4 - - - - - - - - -
30/05:30am 27.0 N 12 14 1012.1 - - - - - - - - -
30/05:00am 26.9 N 10 12 1012.1 - - - - - - - - -
30/04:30am 26.9 N 10 11 1011.9 - - - - - - - - -
30/04:00am 26.9 N 11 12 1012.1 - - - - - - - - -
30/03:30am 27.1 N 10 11 1012.5 - - - - - - - - -
30/03:00am 27.2 N 10 11 1012.8 - - - - - - - - -
30/02:30am 27.0 N 11 12 1012.8 - - - - - - - - -
30/02:00am 27.1 N 11 13 1012.8 - - - - - - - - -
30/01:30am 27.1 N 10 11 1012.7 - - - - - - - - -
30/01:00am 27.1 N 9 11 1013.0 - - - - - - - - -
30/12:30am 27.2 NNW 7 9 1013.4 - - - - - - - - -
30/12:00am 27.3 N 9 11 1013.1 - - - - - - - - -
 
Date/Time
CST
Temp
°C
Wind Pressure Rain since
9am
mm
Weather Cloud Vis
km
Sea
Height
m
Swell
Dir  Spd
kts
Gust
kts
hPa Trend Height
m
Period
s
Dir
29/11:30pm 27.3 N 10 12 1013.0 - - - - - - - - -
29/11:00pm 27.2 N 9 11 1013.1 - - - - - - - - -
29/10:30pm 27.4 N 10 11 1013.2 - - - - - - - - -
29/10:00pm 27.6 N 10 12 1013.0 - - - - - - - - -
29/09:30pm 27.5 N 11 13 1012.7 - - - - - - - - -
29/09:00pm 27.5 N 10 12 1012.7 - - - - - - - - -
29/08:30pm 27.6 N 11 13 1012.2 - - - - - - - - -
29/08:00pm 27.6 N 10 12 1012.1 - - - - - - - - -
29/07:30pm 27.7 N 11 13 1011.8 - - - - - - - - -
29/07:00pm 27.7 N 11 13 1011.3 - - - - - - - - -
29/06:30pm 27.7 N 13 14 1011.1 - - - - - - - - -
29/06:00pm 28.0 N 11 14 1010.6 - - - - - - - - -
29/05:30pm 28.1 N 11 14 1010.5 - - - - - - - - -
29/05:00pm 28.0 N 11 14 1010.1 - - - - - - - - -
29/04:30pm 28.3 N 11 13 1010.2 - - - - - - - - -
29/04:00pm 28.1 N 12 14 1010.2 - - - - - - - - -
29/03:30pm 28.6 N 12 15 1010.2 - - - - - - - - -
29/03:00pm 28.8 N 13 16 1010.4 - - - - - - - - -
29/02:30pm 28.3 N 13 16 1010.8 - - - - - - - - -
29/02:00pm 29.2 N 13 16 1011.0 - - - - - - - - -
29/01:30pm 28.1 N 14 17 1011.3 - - - - - - - - -
29/01:00pm 28.1 N 14 16 1011.6 - - - - - - - - -
29/12:30pm 28.8 N 13 15 1011.9 - - - - - - - - -
29/12:00pm 28.1 N 12 14 1012.3 - - - - - - - - -
29/11:30am 28.3 N 11 13 1012.8 - - - - - - - - -
29/11:00am 28.1 N 10 12 1013.1 - - - - - - - - -
29/10:30am 28.2 N 11 12 1013.3 - - - - - - - - -
29/10:00am 27.7 N 11 13 1013.1 - - - - - - - - -
29/09:30am 27.5 N 11 12 1012.8 - - - - - - - - -
29/09:00am 27.5 N 12 14 1012.4 - - - - - - - - -
29/08:30am 27.2 N 11 14 1012.3 - - - - - - - - -
29/08:00am 27.1 N 12 14 1012.2 - - - - - - - - -
29/07:30am 27.1 N 12 14 1011.7 - - - - - - - - -
29/07:00am 27.0 N 12 15 1011.6 - - - - - - - - -
29/06:30am 27.0 N 13 15 1011.5 - - - - - - - - -
29/06:00am 27.2 N 12 15 1011.2 - - - - - - - - -
29/05:30am 27.2 N 13 16 1011.1 - - - - - - - - -
29/05:00am 27.2 N 10 11 1011.2 - - - - - - - - -
29/04:30am 27.0 N 11 13 1011.1 - - - - - - - - -
29/04:00am 27.1 N 12 14 1011.4 - - - - - - - - -
29/03:30am 27.1 N 9 11 1011.6 - - - - - - - - -
29/03:00am 27.2 N 9 10 1011.7 - - - - - - - - -
29/02:30am 27.2 N 8 10 1011.9 - - - - - - - - -
29/02:00am 27.4 N 9 10 1012.0 - - - - - - - - -
29/01:30am 27.5 N 9 9 1012.3 - - - - - - - - -
29/01:00am 27.5 N 7 9 1012.5 - - - - - - - - -
29/12:30am 27.4 N 8 9 1012.6 - - - - - - - - -
29/12:00am 27.4 N 7 10 1012.6 - - - - - - - - -
 
Date/Time
CST
Temp
°C
Wind Pressure Rain since
9am
mm
Weather Cloud Vis
km
Sea
Height
m
Swell
Dir  Spd
kts
Gust
kts
hPa Trend Height
m
Period
s
Dir
28/11:30pm 27.2 N 5 9 1012.7 - - - - - - - - -
28/11:00pm 27.4 NNW 6 7 1012.7 - - - - - - - - -
28/10:30pm 27.5 NNW 7 8 1012.7 - - - - - - - - -
28/10:00pm 27.4 NNW 7 8 1012.6 - - - - - - - - -
28/09:30pm 27.4 NW 6 7 1012.6 - - - - - - - - -
28/09:00pm 27.4 NW 6 7 1012.3 - - - - - - - - -
28/08:30pm 27.5 NW 7 7 1012.0 - - - - - - - - -
28/08:00pm 27.5 NW 6 7 1011.5 - - - - - - - - -
28/07:30pm 27.5 NW 6 7 1011.2 - - - - - - - - -
28/07:00pm 27.7 NNW 7 8 1011.1 - - - - - - - - -
28/06:30pm 27.9 NNW 7 8 1011.0 - - - - - - - - -
28/06:00pm 28.1 NNW 8 9 1010.8 - - - - - - - - -
28/05:30pm 28.1 NNW 7 8 1010.9 - - - - - - - - -
28/05:00pm 28.6 N 8 10 1010.6 - - - - - - - - -
28/04:30pm 28.0 N 8 10 1010.7 - - - - - - - - -
28/04:00pm 28.9 NNW 8 10 1010.7 - - - - - - - - -
28/03:30pm 28.7 NNW 8 10 1010.9 - - - - - - - - -
28/03:00pm 28.6 NNW 9 11 1011.3 - - - - - - - - -
28/02:30pm 28.9 N 10 13 1011.5 - - - - - - - - -
28/02:00pm 29.0 N 9 11 1012.0 - - - - - - - - -
28/01:30pm 29.0 NNE 9 11 1012.4 - - - - - - - - -
28/01:00pm 29.0 N 7 9 1012.8 - - - - - - - - -
28/12:30pm 28.5 NNE 7 9 1013.2 - - - - - - - - -
28/12:00pm 29.4 N 7 9 1013.7 - - - - - - - - -
28/11:30am 28.6 NNE 7 9 1014.1 - - - - - - - - -
28/11:00am 29.2 NNE 8 10 1014.3 - - - - - - - - -
28/10:30am 28.8 NNE 8 10 1014.5 - - - - - - - - -
28/10:00am 28.1 NNE 8 11 1014.3 - - - - - - - - -
28/09:30am 28.1 NNE 8 10 1014.2 - - - - - - - - -
28/09:00am 27.8 NNE 7 9 1014.1 - - - - - - - - -
28/08:30am 27.1 N 6 7 1013.9 - - - - - - - - -
28/08:00am 27.0 NNE 7 9 1013.7 - - - - - - - - -
28/07:30am 26.9 N 8 9 1013.4 - - - - - - - - -
28/07:00am 26.9 NNE 9 11 1013.0 - - - - - - - - -
28/06:30am 26.9 NNE 10 11 1012.7 - - - - - - - - -
28/06:00am 26.9 NNE 11 12 1012.4 - - - - - - - - -
28/05:30am 26.8 N 9 11 1012.1 - - - - - - - - -
28/05:00am 26.8 N 8 10 1012.2 - - - - - - - - -
28/04:30am 26.8 N 8 9 1012.3 - - - - - - - - -
28/04:00am 26.8 N 9 11 1012.4 - - - - - - - - -
28/03:30am 26.8 N 9 10 1012.4 - - - - - - - - -
28/03:00am 26.9 N 8 9 1012.7 - - - - - - - - -
28/02:30am 27.0 N 6 8 1012.9 - - - - - - - - -
28/02:00am 27.0 NNE 7 8 1013.2 - - - - - - - - -
28/01:30am 27.1 NNE 6 7 1013.6 - - - - - - - - -
28/01:00am 27.0 NNE 7 9 1013.9 - - - - - - - - -
28/12:30am 27.2 NNE 7 8 1014.1 - - - - - - - - -
28/12:00am 27.2 NNE 8 9 1014.1 - - - - - - - - -
 
Date/Time
CST
Temp
°C
Wind Pressure Rain since
9am
mm
Weather Cloud Vis
km
Sea
Height
m
Swell
Dir  Spd
kts
Gust
kts
hPa Trend Height
m
Period
s
Dir
27/11:30pm 27.2 NNE 8 9 1014.1 - - - - - - - - -
27/11:00pm 27.3 NNE 7 9 1014.3 - - - - - - - - -
27/10:30pm 27.2 NNE 7 9 1014.3 - - - - - - - - -
27/10:00pm 27.4 NNE 6 7 1014.4 - - - - - - - - -
27/09:30pm 27.3 NE 6 8 1014.3 - - - - - - - - -
27/09:00pm 27.4 NNE 5 7 1014.0 - - - - - - - - -
27/08:30pm 27.5 NNE 6 7 1013.7 - - - - - - - - -
27/08:00pm 27.5 N 6 7 1013.3 - - - - - - - - -
27/07:30pm 27.4 N 7 9 1013.0 - - - - - - - - -
27/07:00pm 27.6 N 6 8 1012.6 - - - - - - - - -
27/06:30pm 27.9 NNE 8 10 1012.3 - - - - - - - - -
27/06:00pm 27.9 NNE 10 12 1012.2 - - - - - - - - -
27/05:30pm 28.2 NNE 10 13 1012.1 - - - - - - - - -
27/05:00pm 29.1 NNE 9 13 1012.1 - - - - - - - - -
27/04:30pm 28.6 NNE 11 13 1012.0 - - - - - - - - -
27/04:00pm 28.5 NNE 12 14 1012.0 - - - - - - - - -
27/03:30pm 28.6 NNE 11 14 1012.2 - - - - - - - - -
27/03:00pm 28.4 NE 13 16 1012.3 - - - - - - - - -
27/02:30pm 28.7 NE 12 15 1012.3 - - - - - - - - -

Other Formats:

Comma delimited format used in spreadsheet applications
http://www.bom.gov.au/fwo/IDD60701/IDD60701.94103.axf

JavaScript Object Notation format (JSON) in row-major order
http://www.bom.gov.au/fwo/IDD60701/IDD60701.94103.json